Terminal Aerodrome Forecast
Issued by NWS Lubbock, TX

Home | Current Version | Previous Version | Text Only | Print | Product List | Glossary On
Versions: 1 2 3 4 5 6 7 8 9 10 11 12 13 14 15 16
240
FTUS44 KLUB 071131
TAFLBB
TAF
KLBB 071131Z 0712/0812 19007KT 3SM BR OVC004
     FM071700 29011KT P6SM BKN250
     FM080000 02017KT P6SM OVC015=

USA.gov is the U.S. government's official web portal to all federal, state and local government web resources and services.